createdAt,value
2023-09-29T00:00:18.616Z,86.90
2023-09-29T00:02:47.992Z,86.69
2023-09-29T00:05:18.483Z,86.40
2023-09-29T00:07:45.627Z,86.46
2023-09-29T00:10:19.071Z,86.39
2023-09-29T00:12:46.346Z,85.68
2023-09-29T00:15:13.478Z,86.46
2023-09-29T00:17:40.226Z,86.17
2023-09-29T00:20:26.341Z,86.45
2023-09-29T00:22:59.332Z,86.67
2023-09-29T00:25:26.529Z,87.34
2023-09-29T00:27:54.368Z,86.51
2023-09-29T00:30:21.476Z,86.23
2023-09-29T00:32:53.150Z,86.52
2023-09-29T00:35:27.339Z,86.73
2023-09-29T00:38:01.327Z,86.36
2023-09-29T00:40:29.452Z,86.40
2023-09-29T00:42:58.837Z,86.92
2023-09-29T00:45:27.223Z,86.80
2023-09-29T00:48:05.314Z,86.54
2023-09-29T00:50:32.148Z,86.12
2023-09-29T00:53:00.919Z,85.90
2023-09-29T00:55:31.136Z,86.60
2023-09-29T00:57:59.846Z,86.18
2023-09-29T01:00:29.575Z,86.36
2023-09-29T01:03:07.554Z,86.13
2023-09-29T01:05:46.134Z,85.99
2023-09-29T01:08:16.566Z,86.05
2023-09-29T01:10:45.317Z,86.17
2023-09-29T01:13:12.325Z,86.07
2023-09-29T01:15:41.017Z,86.58
2023-09-29T01:18:10.624Z,85.19
2023-09-29T01:20:38.529Z,86.25
2023-09-29T01:23:06.392Z,85.49
2023-09-29T01:25:33.642Z,86.69
2023-09-29T01:28:02.812Z,85.91
2023-09-29T01:30:29.749Z,85.91
2023-09-29T01:33:01.179Z,85.58
2023-09-29T01:35:31.187Z,85.67
2023-09-29T01:38:01.993Z,85.69
2023-09-29T01:40:30.361Z,85.94
2023-09-29T01:42:57.944Z,86.18
2023-09-29T01:45:25.572Z,86.95
2023-09-29T01:47:52.581Z,85.40
2023-09-29T01:50:23.936Z,86.42
2023-09-29T01:52:52.202Z,85.62
2023-09-29T01:55:25.010Z,86.88
2023-09-29T01:57:56.001Z,86.24
2023-09-29T02:00:26.905Z,86.68
2023-09-29T02:02:55.537Z,86.65
2023-09-29T02:05:23.110Z,86.36
2023-09-29T02:07:50.627Z,85.86
2023-09-29T02:10:22.163Z,86.82
2023-09-29T02:12:59.793Z,86.58
2023-09-29T02:15:28.026Z,86.95
2023-09-29T02:17:55.169Z,86.79
2023-09-29T02:20:29.709Z,86.98
2023-09-29T02:23:00.705Z,86.76
2023-09-29T02:25:29.567Z,86.35
2023-09-29T02:27:58.119Z,86.11
2023-09-29T02:30:25.853Z,86.05
2023-09-29T02:32:53.624Z,86.45
2023-09-29T02:35:21.232Z,85.98
2023-09-29T02:37:48.468Z,86.38
2023-09-29T02:40:18.263Z,87.27
2023-09-29T02:42:48.351Z,87.44
2023-09-29T02:45:15.446Z,87.35
2023-09-29T02:47:48.592Z,88.53
2023-09-29T02:50:15.828Z,87.91
2023-09-29T02:52:42.510Z,87.83
2023-09-29T02:55:15.687Z,86.56
2023-09-29T02:57:43.676Z,87.74
2023-09-29T03:00:16.557Z,86.91
2023-09-29T03:02:43.679Z,87.84
2023-09-29T03:05:10.224Z,88.03
2023-09-29T03:07:37.662Z,88.16
2023-09-29T03:10:08.946Z,87.77
2023-09-29T03:12:37.411Z,87.73
2023-09-29T03:15:08.622Z,87.76
2023-09-29T03:17:35.618Z,87.55
2023-09-29T03:20:09.779Z,87.74
2023-09-29T03:22:39.262Z,88.75
2023-09-29T03:25:06.306Z,87.83
2023-09-29T03:27:33.140Z,87.50
2023-09-29T03:30:00.247Z,89.16
2023-09-29T03:32:27.846Z,87.56
2023-09-29T03:34:54.525Z,88.10
2023-09-29T03:37:21.436Z,87.85
2023-09-29T03:39:51.070Z,89.17
2023-09-29T03:42:17.659Z,88.04
2023-09-29T03:44:48.076Z,88.13
2023-09-29T03:47:15.816Z,88.67
2023-09-29T03:49:44.265Z,88.54
2023-09-29T03:52:11.140Z,88.22
2023-09-29T03:54:37.783Z,88.44
2023-09-29T03:57:11.334Z,88.04
2023-09-29T03:59:38.605Z,89.20
2023-09-29T04:02:06.058Z,88.33
2023-09-29T04:04:33.421Z,88.57
2023-09-29T04:07:00.021Z,87.51
2023-09-29T04:09:26.809Z,87.76
2023-09-29T04:11:53.545Z,87.98
2023-09-29T04:14:33.295Z,88.99
2023-09-29T04:17:00.800Z,87.89
2023-09-29T04:19:27.436Z,87.88
2023-09-29T04:21:53.981Z,87.63
2023-09-29T04:24:20.708Z,87.44
2023-09-29T04:26:47.283Z,88.11
2023-09-29T04:29:13.898Z,87.85
2023-09-29T04:31:40.606Z,88.30
2023-09-29T04:34:07.220Z,87.79
2023-09-29T04:36:33.871Z,87.37
2023-09-29T04:39:00.544Z,88.00
2023-09-29T04:41:27.284Z,87.70
2023-09-29T04:43:53.905Z,87.57
2023-09-29T04:46:20.568Z,87.57
2023-09-29T04:48:47.246Z,86.23
2023-09-29T04:51:13.847Z,86.89
2023-09-29T04:53:40.414Z,86.39
2023-09-29T04:56:07.043Z,87.07
2023-09-29T04:58:33.616Z,86.59
2023-09-29T05:01:00.314Z,85.91
2023-09-29T05:03:27.290Z,86.06
2023-09-29T05:05:54.013Z,85.68
2023-09-29T05:08:20.599Z,86.18
2023-09-29T05:10:47.185Z,85.96
2023-09-29T05:13:13.784Z,85.89
2023-09-29T05:15:40.390Z,84.67
2023-09-29T05:18:07.145Z,85.84
2023-09-29T05:20:33.900Z,85.80
2023-09-29T05:23:00.479Z,85.48
2023-09-29T05:25:27.050Z,86.51
2023-09-29T05:27:53.681Z,85.87
2023-09-29T05:30:20.523Z,86.88
2023-09-29T05:32:47.278Z,86.26
2023-09-29T05:35:13.865Z,86.26
2023-09-29T05:37:40.520Z,85.27
2023-09-29T05:40:07.891Z,86.09
2023-09-29T05:42:50.933Z,85.50
2023-09-29T05:45:20.094Z,85.87
2023-09-29T05:47:48.439Z,86.47
2023-09-29T05:50:18.188Z,86.64
2023-09-29T05:52:59.574Z,85.52
2023-09-29T05:55:30.997Z,86.40
2023-09-29T05:57:57.514Z,85.22
2023-09-29T06:00:25.725Z,85.92
2023-09-29T06:02:52.969Z,86.10
2023-09-29T06:05:20.298Z,84.98
2023-09-29T06:07:47.088Z,85.71
2023-09-29T06:10:13.630Z,85.65
2023-09-29T06:12:40.647Z,84.29
2023-09-29T06:15:07.498Z,84.23
2023-09-29T06:17:34.189Z,84.45
2023-09-29T06:20:00.799Z,83.70
2023-09-29T06:22:27.341Z,83.67
2023-09-29T06:24:54.044Z,83.83
2023-09-29T06:27:20.736Z,84.04
2023-09-29T06:29:48.119Z,84.16
2023-09-29T06:32:14.787Z,82.69
2023-09-29T06:34:41.376Z,83.27
2023-09-29T06:37:10.013Z,82.20
2023-09-29T06:39:37.208Z,83.55
2023-09-29T06:42:04.919Z,82.56
2023-09-29T06:44:33.482Z,83.35
2023-09-29T06:47:00.058Z,82.22
2023-09-29T06:49:26.768Z,82.39
2023-09-29T06:51:53.422Z,82.67
2023-09-29T06:54:20.041Z,82.18
2023-09-29T06:56:47.820Z,81.42
2023-09-29T06:59:14.652Z,81.56
2023-09-29T07:01:41.406Z,81.63
2023-09-29T07:04:09.634Z,81.49
2023-09-29T07:06:37.520Z,81.02
2023-09-29T07:09:05.286Z,80.56
2023-09-29T07:11:32.200Z,80.00
2023-09-29T07:13:58.784Z,79.57
2023-09-29T07:16:25.477Z,79.21
2023-09-29T07:18:53.682Z,78.63
2023-09-29T07:21:21.179Z,78.20
2023-09-29T07:23:48.052Z,78.23
2023-09-29T07:26:15.031Z,77.55
2023-09-29T07:28:41.900Z,77.39
2023-09-29T07:31:08.618Z,77.76
2023-09-29T07:33:35.322Z,77.19
2023-09-29T07:36:02.114Z,77.76
2023-09-29T07:38:28.673Z,77.88
2023-09-29T07:40:55.261Z,78.38
2023-09-29T07:43:21.941Z,78.91
2023-09-29T07:45:49.168Z,78.44
2023-09-29T07:48:17.451Z,78.76
2023-09-29T07:50:44.527Z,77.33
2023-09-29T07:53:12.535Z,77.35
2023-09-29T07:55:39.719Z,76.86
2023-09-29T07:58:07.050Z,76.54
2023-09-29T08:00:33.902Z,76.23
2023-09-29T08:03:01.227Z,75.93
2023-09-29T08:05:27.982Z,75.38
2023-09-29T08:07:54.623Z,75.06
2023-09-29T08:10:21.300Z,75.04
2023-09-29T08:12:47.929Z,74.43
2023-09-29T08:15:15.830Z,75.25
2023-09-29T08:17:43.101Z,74.90
2023-09-29T08:20:10.534Z,74.51
2023-09-29T08:22:40.480Z,74.04
2023-09-29T08:25:11.706Z,74.48
2023-09-29T08:27:39.606Z,73.50
2023-09-29T08:30:10.703Z,73.27
2023-09-29T08:32:44.391Z,73.97
2023-09-29T08:35:14.343Z,73.33
2023-09-29T08:37:42.272Z,73.13
2023-09-29T08:40:13.516Z,72.49
2023-09-29T08:42:42.617Z,70.79
2023-09-29T08:45:11.460Z,70.12
2023-09-29T08:47:41.996Z,69.00
2023-09-29T08:50:12.489Z,67.89
2023-09-29T08:52:46.029Z,67.47
2023-09-29T08:55:13.718Z,67.63
2023-09-29T08:57:43.724Z,68.94
2023-09-29T09:00:14.310Z,69.98
2023-09-29T09:02:45.514Z,71.00
2023-09-29T09:05:13.462Z,72.50
2023-09-29T09:07:41.510Z,73.65
2023-09-29T09:10:16.094Z,73.87
2023-09-29T09:12:53.704Z,74.00
2023-09-29T09:15:25.675Z,74.83
2023-09-29T09:17:52.896Z,74.47
2023-09-29T09:20:20.115Z,74.97
2023-09-29T09:23:00.876Z,74.45
2023-09-29T09:25:36.567Z,74.16
2023-09-29T09:28:04.672Z,73.81
2023-09-29T09:30:37.622Z,73.02
2023-09-29T09:33:08.370Z,72.71
2023-09-29T09:35:38.630Z,71.91
2023-09-29T09:38:05.693Z,71.78
2023-09-29T09:40:33.644Z,71.81
2023-09-29T09:43:04.372Z,71.39
2023-09-29T09:45:45.540Z,70.84
2023-09-29T09:48:16.149Z,70.94
2023-09-29T09:50:48.061Z,71.62
2023-09-29T09:53:16.018Z,72.21
2023-09-29T09:56:00.839Z,72.75
2023-09-29T09:58:28.514Z,73.67
2023-09-29T10:00:57.381Z,73.13
2023-09-29T10:03:25.935Z,72.98
2023-09-29T10:05:54.404Z,72.59
2023-09-29T10:08:33.525Z,72.21
2023-09-29T10:11:12.074Z,71.97
2023-09-29T10:13:41.069Z,70.90
2023-09-29T10:16:07.852Z,70.95
2023-09-29T10:18:36.641Z,72.13
2023-09-29T10:21:10.817Z,73.20
2023-09-29T10:23:49.579Z,72.59
2023-09-29T10:26:16.222Z,72.92
2023-09-29T10:28:43.137Z,73.33
2023-09-29T10:31:14.934Z,73.60
2023-09-29T10:33:56.358Z,74.02
2023-09-29T10:36:29.901Z,74.27
2023-09-29T10:38:58.852Z,73.16
2023-09-29T10:44:02.810Z,69.49
2023-09-29T10:46:30.418Z,67.42
2023-09-29T10:48:57.446Z,65.01
2023-09-29T10:51:29.021Z,63.35
2023-09-29T10:53:56.603Z,63.02
2023-09-29T10:56:25.682Z,61.99
2023-09-29T10:58:54.188Z,61.89
2023-09-29T11:01:23.015Z,61.94
2023-09-29T11:03:52.075Z,62.50
2023-09-29T11:06:20.139Z,61.03
2023-09-29T11:08:55.178Z,61.01
2023-09-29T11:11:22.103Z,60.13
2023-09-29T11:13:58.331Z,60.78
2023-09-29T11:16:28.372Z,61.10
2023-09-29T11:18:57.808Z,61.89
2023-09-29T11:21:35.849Z,61.56
2023-09-29T11:24:14.903Z,61.46
2023-09-29T11:26:43.276Z,60.03
2023-09-29T11:29:30.144Z,59.08
2023-09-29T11:31:56.860Z,59.32
2023-09-29T11:34:24.344Z,58.10
2023-09-29T11:36:52.075Z,58.17
2023-09-29T11:39:20.922Z,58.33
2023-09-29T11:41:48.446Z,57.88
2023-09-29T11:44:16.218Z,57.23
2023-09-29T11:46:43.003Z,57.93
2023-09-29T11:49:09.696Z,57.38
2023-09-29T11:51:36.380Z,56.74
2023-09-29T11:54:06.876Z,56.71
2023-09-29T11:56:33.853Z,56.15
2023-09-29T11:59:00.435Z,56.40
2023-09-29T12:01:28.460Z,57.47
2023-09-29T12:03:56.299Z,58.36
2023-09-29T12:06:23.392Z,58.84
2023-09-29T12:08:49.997Z,58.86
2023-09-29T12:11:20.491Z,59.65
2023-09-29T12:13:48.906Z,59.51
2023-09-29T12:16:16.442Z,58.90
2023-09-29T12:18:43.446Z,58.87
2023-09-29T12:21:12.786Z,58.80
2023-09-29T12:23:39.918Z,59.14
2023-09-29T12:26:07.532Z,59.61
2023-09-29T12:28:36.495Z,60.28
2023-09-29T12:31:04.424Z,60.90
2023-09-29T12:33:31.416Z,61.13
2023-09-29T12:35:58.335Z,61.88
2023-09-29T12:38:24.972Z,60.25
2023-09-29T12:40:51.873Z,60.19
2023-09-29T12:43:18.626Z,59.26
2023-09-29T12:45:45.479Z,59.01
2023-09-29T12:48:12.218Z,58.76
2023-09-29T12:50:40.659Z,60.03
2023-09-29T12:53:07.501Z,60.12
2023-09-29T12:55:34.110Z,59.14
2023-09-29T12:58:07.898Z,59.46
2023-09-29T13:00:37.719Z,59.70
2023-09-29T13:03:08.462Z,59.23
2023-09-29T13:05:38.985Z,58.37
2023-09-29T13:08:06.436Z,58.74
2023-09-29T13:10:37.164Z,59.48
2023-09-29T13:13:04.526Z,60.17
2023-09-29T13:15:32.542Z,61.19
2023-09-29T13:17:59.573Z,60.83
2023-09-29T13:20:26.300Z,62.25
2023-09-29T13:22:52.973Z,61.01
2023-09-29T13:25:19.674Z,61.01
2023-09-29T13:27:46.288Z,61.23
2023-09-29T13:30:14.990Z,61.69
2023-09-29T13:32:41.877Z,62.21
2023-09-29T13:35:09.623Z,61.38
2023-09-29T13:37:37.639Z,60.21
2023-09-29T13:40:07.255Z,60.13
2023-09-29T13:42:36.355Z,59.92
2023-09-29T13:45:04.103Z,60.24
2023-09-29T13:47:30.869Z,60.41
2023-09-29T13:49:57.607Z,60.83
2023-09-29T13:52:24.836Z,60.34
2023-09-29T13:54:54.254Z,61.78
2023-09-29T13:57:24.911Z,62.17
2023-09-29T13:59:52.075Z,62.46
2023-09-29T14:02:18.699Z,62.27
2023-09-29T14:04:46.001Z,61.87
2023-09-29T14:07:12.755Z,60.41
2023-09-29T14:09:39.840Z,60.07
2023-09-29T14:12:09.022Z,59.26
2023-09-29T14:14:36.359Z,59.25
2023-09-29T14:17:03.519Z,59.83
2023-09-29T14:19:30.130Z,60.37
2023-09-29T14:21:57.387Z,61.66
2023-09-29T14:24:24.254Z,62.25
2023-09-29T14:26:50.849Z,62.00
2023-09-29T14:29:18.659Z,63.13
2023-09-29T14:31:46.952Z,63.68
2023-09-29T14:34:16.683Z,62.69
2023-09-29T14:36:44.048Z,63.65
2023-09-29T14:39:13.640Z,63.63
2023-09-29T14:41:40.209Z,63.64
2023-09-29T14:44:07.594Z,64.32
2023-09-29T14:46:34.757Z,65.10
2023-09-29T14:49:02.594Z,66.45
2023-09-29T14:51:29.695Z,66.00
2023-09-29T14:53:56.973Z,66.33
2023-09-29T14:56:23.874Z,67.50
2023-09-29T14:58:50.453Z,67.51
2023-09-29T15:01:17.543Z,67.48
2023-09-29T15:03:44.418Z,67.63
2023-09-29T15:06:14.679Z,67.41
2023-09-29T15:08:42.839Z,67.15
2023-09-29T15:11:11.569Z,66.64
2023-09-29T15:13:40.773Z,66.61
2023-09-29T15:16:12.668Z,67.86
2023-09-29T15:18:39.479Z,68.94
2023-09-29T15:21:07.155Z,69.09
2023-09-29T15:23:36.001Z,68.75
2023-09-29T15:26:02.872Z,69.00
2023-09-29T15:28:29.638Z,69.38
2023-09-29T15:30:56.832Z,69.25
2023-09-29T15:33:23.744Z,69.55
2023-09-29T15:35:58.914Z,69.95
2023-09-29T15:38:26.452Z,70.11
2023-09-29T15:40:53.436Z,70.93
2023-09-29T15:43:20.903Z,71.55
2023-09-29T15:45:48.049Z,71.37
2023-09-29T15:48:15.100Z,71.86
2023-09-29T15:50:42.078Z,71.56
2023-09-29T15:53:08.955Z,72.07
2023-09-29T15:55:36.801Z,71.69
2023-09-29T16:00:32.586Z,72.50
2023-09-29T16:02:59.328Z,73.05
2023-09-29T16:05:26.954Z,72.78
2023-09-29T16:07:53.730Z,73.33
2023-09-29T16:10:20.687Z,73.07
2023-09-29T16:12:47.302Z,72.56
2023-09-29T16:15:14.584Z,73.63
2023-09-29T16:17:44.121Z,73.29
2023-09-29T16:20:12.098Z,74.00
2023-09-29T16:22:39.054Z,76.73
2023-09-29T16:25:06.290Z,79.65
2023-09-29T16:27:33.010Z,81.73
2023-09-29T16:29:59.694Z,83.28
2023-09-29T16:34:59.317Z,85.31
2023-09-29T16:37:25.962Z,85.62
2023-09-29T16:39:52.817Z,85.94
2023-09-29T16:42:19.837Z,87.26
2023-09-29T16:44:47.839Z,87.61
2023-09-29T16:47:14.594Z,87.52
2023-09-29T16:49:41.222Z,87.71
2023-09-29T16:52:08.141Z,86.72
2023-09-29T16:54:35.026Z,87.30
2023-09-29T16:57:01.840Z,85.92
2023-09-29T16:59:28.591Z,86.75
2023-09-29T17:01:55.289Z,86.38
2023-09-29T17:04:22.204Z,85.63
2023-09-29T17:06:48.840Z,86.57
2023-09-29T17:09:17.256Z,86.54
2023-09-29T17:11:46.057Z,86.04
2023-09-29T17:14:13.539Z,86.63
2023-09-29T17:16:40.585Z,86.22
2023-09-29T17:19:08.587Z,85.23
2023-09-29T17:21:35.838Z,86.57
2023-09-29T17:24:03.139Z,88.01
2023-09-29T17:26:30.055Z,86.57
2023-09-29T17:28:57.066Z,86.72
2023-09-29T17:31:25.957Z,87.34
2023-09-29T17:33:53.684Z,86.82
2023-09-29T17:36:20.363Z,85.29
2023-09-29T17:38:47.558Z,87.02
2023-09-29T17:41:16.478Z,87.58
2023-09-29T17:43:43.165Z,89.42
2023-09-29T17:46:09.893Z,87.55
2023-09-29T17:48:43.221Z,89.71
2023-09-29T17:51:15.021Z,89.17
2023-09-29T17:53:42.728Z,90.63
2023-09-29T17:56:13.163Z,90.05
2023-09-29T17:58:43.643Z,87.90
2023-09-29T18:01:13.943Z,88.59
2023-09-29T18:03:43.486Z,88.77
2023-09-29T18:06:11.689Z,89.92
2023-09-29T18:08:38.373Z,89.24
2023-09-29T18:11:05.507Z,88.96
2023-09-29T18:13:32.597Z,88.19
2023-09-29T18:15:59.114Z,87.75
2023-09-29T18:18:26.091Z,89.87
2023-09-29T18:20:52.899Z,88.20
2023-09-29T18:23:19.729Z,87.46
2023-09-29T18:25:46.261Z,87.72
2023-09-29T18:28:12.777Z,87.98
2023-09-29T18:30:39.747Z,89.13
2023-09-29T18:33:06.396Z,87.95
2023-09-29T18:35:33.090Z,89.20
2023-09-29T18:37:59.756Z,89.48
2023-09-29T18:40:26.353Z,89.47
2023-09-29T18:42:53.596Z,90.82
2023-09-29T18:45:20.269Z,91.14
2023-09-29T18:47:47.078Z,90.29
2023-09-29T18:50:16.848Z,91.34
2023-09-29T18:52:43.626Z,90.48
2023-09-29T18:55:10.271Z,90.70
2023-09-29T18:57:36.904Z,92.19
2023-09-29T19:00:06.072Z,91.23
2023-09-29T19:02:33.302Z,89.48
2023-09-29T19:05:01.161Z,90.38
2023-09-29T19:07:27.899Z,90.35
2023-09-29T19:09:54.622Z,90.91
2023-09-29T19:12:22.380Z,90.15
2023-09-29T19:14:49.404Z,90.33
2023-09-29T19:17:16.319Z,91.12
2023-09-29T19:19:43.112Z,91.13
2023-09-29T19:22:09.756Z,91.54
2023-09-29T19:24:36.674Z,91.71
2023-09-29T19:27:03.594Z,91.34
2023-09-29T19:29:30.234Z,91.86
2023-09-29T19:31:57.095Z,91.91
2023-09-29T19:34:23.774Z,91.96
2023-09-29T19:36:51.261Z,92.20
2023-09-29T19:39:18.024Z,92.09
2023-09-29T19:41:44.796Z,91.78
2023-09-29T19:44:11.825Z,91.93
2023-09-29T19:46:39.038Z,91.58
2023-09-29T19:49:05.873Z,91.75
2023-09-29T19:51:32.791Z,91.54
2023-09-29T19:54:00.092Z,91.37
2023-09-29T19:56:34.116Z,91.12
2023-09-29T19:59:01.416Z,89.81
2023-09-29T20:01:28.340Z,90.47
2023-09-29T20:03:55.060Z,90.91
2023-09-29T20:06:21.860Z,90.35
2023-09-29T20:08:51.009Z,88.95
2023-09-29T20:11:21.246Z,89.93
2023-09-29T20:13:47.939Z,88.82
2023-09-29T20:16:17.083Z,89.67
2023-09-29T20:18:45.944Z,89.21
2023-09-29T20:21:12.778Z,89.82
2023-09-29T20:23:39.496Z,88.98
2023-09-29T20:26:06.135Z,89.53
2023-09-29T20:28:32.878Z,89.20
2023-09-29T20:30:59.600Z,89.88
2023-09-29T20:33:26.306Z,89.20
2023-09-29T20:35:53.494Z,89.71
2023-09-29T20:38:20.090Z,89.71
2023-09-29T20:40:47.931Z,89.79
2023-09-29T20:43:15.148Z,88.72
2023-09-29T20:45:49.543Z,88.75
2023-09-29T20:48:17.361Z,90.84
2023-09-29T20:50:44.536Z,90.53
2023-09-29T20:53:12.722Z,90.03
2023-09-29T20:55:40.166Z,90.80
2023-09-29T20:58:06.772Z,91.41
2023-09-29T21:00:34.494Z,90.93
2023-09-29T21:03:01.957Z,90.46
2023-09-29T21:05:29.120Z,91.10
2023-09-29T21:07:55.781Z,91.48
2023-09-29T21:10:22.444Z,90.13
2023-09-29T21:12:49.316Z,92.00
2023-09-29T21:15:16.482Z,90.66
2023-09-29T21:17:43.536Z,91.73
2023-09-29T21:20:16.656Z,91.32
2023-09-29T21:22:44.311Z,91.35
2023-09-29T21:25:13.187Z,90.53
2023-09-29T21:27:40.799Z,92.56
2023-09-29T21:30:09.844Z,90.85
2023-09-29T21:32:37.967Z,91.42
2023-09-29T21:35:05.918Z,90.95
2023-09-29T21:37:32.676Z,92.64
2023-09-29T21:39:59.286Z,91.02
2023-09-29T21:42:26.102Z,92.99
2023-09-29T21:44:52.809Z,91.57
2023-09-29T21:47:19.456Z,93.02
2023-09-29T21:49:46.516Z,92.68
2023-09-29T21:52:13.416Z,91.31
2023-09-29T21:54:40.175Z,91.85
2023-09-29T21:57:08.773Z,90.30
2023-09-29T21:59:35.656Z,89.75
2023-09-29T22:02:02.494Z,90.35
2023-09-29T22:04:30.602Z,89.15
2023-09-29T22:06:57.706Z,88.97
2023-09-29T22:09:24.608Z,89.65
2023-09-29T22:11:51.332Z,90.56
2023-09-29T22:14:18.941Z,89.83
2023-09-29T22:16:46.174Z,90.42
2023-09-29T22:19:13.513Z,91.51
2023-09-29T22:21:40.418Z,90.34
2023-09-29T22:24:07.247Z,90.18
2023-09-29T22:26:36.295Z,91.73
2023-09-29T22:29:03.201Z,90.06
2023-09-29T22:31:30.893Z,90.03
2023-09-29T22:33:58.046Z,90.03
2023-09-29T22:36:25.097Z,89.27
2023-09-29T22:38:52.140Z,90.13
2023-09-29T22:41:19.014Z,90.47
2023-09-29T22:43:45.669Z,91.30
2023-09-29T22:46:12.460Z,92.30
2023-09-29T22:48:39.244Z,92.63
2023-09-29T22:51:06.325Z,91.86
2023-09-29T22:53:33.039Z,91.85
2023-09-29T22:55:59.689Z,91.89
2023-09-29T22:58:27.526Z,91.71
2023-09-29T23:00:54.661Z,92.90
2023-09-29T23:03:21.719Z,92.07
2023-09-29T23:05:48.559Z,93.28
2023-09-29T23:08:15.796Z,93.26
2023-09-29T23:10:43.772Z,92.63
2023-09-29T23:13:11.939Z,92.05
2023-09-29T23:15:40.621Z,92.01
2023-09-29T23:18:09.991Z,91.85
2023-09-29T23:20:40.007Z,92.57
2023-09-29T23:23:07.334Z,92.85
2023-09-29T23:25:34.097Z,92.85
2023-09-29T23:28:03.292Z,92.33
2023-09-29T23:30:36.568Z,92.84
2023-09-29T23:33:04.974Z,93.22
2023-09-29T23:35:32.085Z,92.39
2023-09-29T23:37:59.774Z,94.03
2023-09-29T23:40:26.403Z,93.65
2023-09-29T23:42:53.023Z,93.59
2023-09-29T23:45:19.732Z,93.41
2023-09-29T23:47:48.762Z,94.15
2023-09-29T23:50:15.427Z,93.95
2023-09-29T23:52:42.109Z,93.96
2023-09-29T23:55:09.935Z,92.73
2023-09-29T23:57:37.148Z,93.75
